Bonita Springs, Florida
Current Conditions -  °F | °C
As of 11:53 PM on Saturday 20 Dec 2014 (Local Time) from KRSW Reporting Station
Broken Clouds Broken Clouds  
Wind Chill: 63°   Ceiling: 10000
Heat Index: 63°   Visibility: 10mi
Dew Point: 61°   Wind: 3mph
Humidity: 93%   Direction: 100°E
Pressure: 30.08"   Gusts: NA
Location:  26.34°N, 81.78°W
Report Text: KRSW 210453Z 10003KT 10SM BKN100 17/16 A3008 RMK AO2 SLP182 T01720161 402610111
Loading
Personal Weather Stations






























Interactive Weather Map New forecast layout! Learn more

10-Day Weather Forecast

Advertisements
Track Severe Weather on mobile